sensor_id;sensor_type;location;lat;lon;timestamp;pressure;altitude;pressure_sealevel;temperature;humidity
39954;BME280;25631;51.516;-0.470;2023-03-19T00:00:39;100756.34;;;7.91;43.06
39954;BME280;25631;51.516;-0.470;2023-03-19T00:03:16;100752.51;;;8.63;42.96
39954;BME280;25631;51.516;-0.470;2023-03-19T00:05:53;100752.35;;;8.79;42.83
39954;BME280;25631;51.516;-0.470;2023-03-19T00:08:29;100756.83;;;8.90;42.96
39954;BME280;25631;51.516;-0.470;2023-03-19T00:11:06;100756.97;;;9.00;42.96
39954;BME280;25631;51.516;-0.470;2023-03-19T00:13:43;100753.36;;;8.78;43.22
39954;BME280;25631;51.516;-0.470;2023-03-19T00:16:19;100755.59;;;8.71;43.07
39954;BME280;25631;51.516;-0.470;2023-03-19T00:18:56;100759.03;;;8.67;43.10
39954;BME280;25631;51.516;-0.470;2023-03-19T00:21:33;100762.13;;;8.77;43.10
39954;BME280;25631;51.516;-0.470;2023-03-19T00:24:09;100769.22;;;8.61;43.06
39954;BME280;25631;51.516;-0.470;2023-03-19T00:26:46;100773.60;;;8.87;43.05
39954;BME280;25631;51.516;-0.470;2023-03-19T00:29:23;100772.86;;;8.51;43.59
39954;BME280;25631;51.516;-0.470;2023-03-19T00:31:59;100771.68;;;8.61;43.41
39954;BME280;25631;51.516;-0.470;2023-03-19T00:34:36;100778.81;;;8.55;43.52
39954;BME280;25631;51.516;-0.470;2023-03-19T00:37:12;100785.95;;;8.65;43.43
39954;BME280;25631;51.516;-0.470;2023-03-19T00:39:49;100792.27;;;8.71;43.64
39954;BME280;25631;51.516;-0.470;2023-03-19T00:42:25;100797.52;;;8.51;43.98
39954;BME280;25631;51.516;-0.470;2023-03-19T00:45:03;100804.54;;;8.45;43.78
39954;BME280;25631;51.516;-0.470;2023-03-19T00:47:39;100814.25;;;7.93;43.72
39954;BME280;25631;51.516;-0.470;2023-03-19T00:50:16;100837.62;;;7.93;43.64
39954;BME280;25631;51.516;-0.470;2023-03-19T00:52:52;100822.44;;;7.12;43.40
39954;BME280;25631;51.516;-0.470;2023-03-19T00:55:29;100830.27;;;7.37;43.47
39954;BME280;25631;51.516;-0.470;2023-03-19T00:58:06;100827.91;;;7.33;43.38
39954;BME280;25631;51.516;-0.470;2023-03-19T01:00:42;100834.33;;;7.69;43.21
39954;BME280;25631;51.516;-0.470;2023-03-19T01:03:19;100838.89;;;7.71;42.91
39954;BME280;25631;51.516;-0.470;2023-03-19T01:05:56;100839.69;;;7.32;42.63
39954;BME280;25631;51.516;-0.470;2023-03-19T01:08:33;100841.39;;;7.25;42.40
39954;BME280;25631;51.516;-0.470;2023-03-19T01:11:11;100843.51;;;7.41;42.32
39954;BME280;25631;51.516;-0.470;2023-03-19T01:13:49;100848.59;;;7.33;42.26
39954;BME280;25631;51.516;-0.470;2023-03-19T01:16:25;100860.25;;;6.99;42.20
39954;BME280;25631;51.516;-0.470;2023-03-19T01:19:02;100855.07;;;7.34;41.96
39954;BME280;25631;51.516;-0.470;2023-03-19T01:21:39;100862.62;;;7.08;42.19
39954;BME280;25631;51.516;-0.470;2023-03-19T01:24:15;100864.18;;;6.97;42.33
39954;BME280;25631;51.516;-0.470;2023-03-19T01:26:52;100870.89;;;6.78;42.45
39954;BME280;25631;51.516;-0.470;2023-03-19T01:29:28;100888.13;;;6.73;42.56
39954;BME280;25631;51.516;-0.470;2023-03-19T01:32:05;100897.17;;;6.90;42.51
39954;BME280;25631;51.516;-0.470;2023-03-19T01:34:42;100898.18;;;6.73;42.35
39954;BME280;25631;51.516;-0.470;2023-03-19T01:37:18;100903.24;;;6.48;42.54
39954;BME280;25631;51.516;-0.470;2023-03-19T01:39:55;100908.74;;;6.83;42.59
39954;BME280;25631;51.516;-0.470;2023-03-19T01:42:31;100915.21;;;6.88;42.53
39954;BME280;25631;51.516;-0.470;2023-03-19T01:45:29;100920.08;;;6.62;42.34
39954;BME280;25631;51.516;-0.470;2023-03-19T01:48:15;100910.93;;;6.69;42.25
39954;BME280;25631;51.516;-0.470;2023-03-19T01:50:52;100913.42;;;7.02;42.08
39954;BME280;25631;51.516;-0.470;2023-03-19T01:53:31;100916.41;;;6.68;41.80
39954;BME280;25631;51.516;-0.470;2023-03-19T01:56:11;100914.31;;;6.89;41.62
39954;BME280;25631;51.516;-0.470;2023-03-19T01:58:54;100920.73;;;7.26;41.41
39954;BME280;25631;51.516;-0.470;2023-03-19T02:01:35;100914.91;;;6.77;41.08
39954;BME280;25631;51.516;-0.470;2023-03-19T02:04:14;100913.34;;;6.82;40.75
39954;BME280;25631;51.516;-0.470;2023-03-19T02:06:50;100908.42;;;6.78;40.58
39954;BME280;25631;51.516;-0.470;2023-03-19T02:09:27;100912.59;;;7.01;40.60
39954;BME280;25631;51.516;-0.470;2023-03-19T02:12:04;100912.01;;;7.14;40.53
39954;BME280;25631;51.516;-0.470;2023-03-19T02:14:41;100915.20;;;7.42;40.50
39954;BME280;25631;51.516;-0.470;2023-03-19T02:17:19;100916.56;;;6.96;40.42
39954;BME280;25631;51.516;-0.470;2023-03-19T02:19:58;100916.19;;;7.02;40.41
39954;BME280;25631;51.516;-0.470;2023-03-19T02:22:42;100925.95;;;7.01;40.56
39954;BME280;25631;51.516;-0.470;2023-03-19T02:25:27;100924.20;;;6.84;40.62
39954;BME280;25631;51.516;-0.470;2023-03-19T02:28:06;100922.97;;;7.03;40.61
39954;BME280;25631;51.516;-0.470;2023-03-19T02:30:44;100918.53;;;7.22;40.64
39954;BME280;25631;51.516;-0.470;2023-03-19T02:33:21;100911.90;;;7.20;40.56
39954;BME280;25631;51.516;-0.470;2023-03-19T02:35:57;100917.66;;;7.23;40.56
39954;BME280;25631;51.516;-0.470;2023-03-19T02:38:35;100919.23;;;7.31;40.40
39954;BME280;25631;51.516;-0.470;2023-03-19T02:41:14;100920.18;;;7.58;40.45
39954;BME280;25631;51.516;-0.470;2023-03-19T02:43:51;100923.19;;;7.51;40.54
39954;BME280;25631;51.516;-0.470;2023-03-19T02:46:29;100920.03;;;7.39;40.54
39954;BME280;25631;51.516;-0.470;2023-03-19T02:49:06;100926.43;;;7.39;40.43
39954;BME280;25631;51.516;-0.470;2023-03-19T02:51:42;100929.45;;;7.55;40.53
39954;BME280;25631;51.516;-0.470;2023-03-19T02:54:18;100940.11;;;7.72;40.58
39954;BME280;25631;51.516;-0.470;2023-03-19T02:56:55;100934.30;;;7.52;40.56
39954;BME280;25631;51.516;-0.470;2023-03-19T02:59:32;100934.34;;;7.54;40.61
39954;BME280;25631;51.516;-0.470;2023-03-19T03:02:08;100928.88;;;7.72;40.59
39954;BME280;25631;51.516;-0.470;2023-03-19T03:04:45;100930.70;;;7.49;40.64
39954;BME280;25631;51.516;-0.470;2023-03-19T03:07:21;100927.12;;;7.71;40.68
39954;BME280;25631;51.516;-0.470;2023-03-19T03:09:58;100934.67;;;7.64;40.63
39954;BME280;25631;51.516;-0.470;2023-03-19T03:12:34;100938.58;;;7.33;40.73
39954;BME280;25631;51.516;-0.470;2023-03-19T03:15:11;100941.44;;;7.50;40.83
39954;BME280;25631;51.516;-0.470;2023-03-19T03:17:47;100952.54;;;7.59;40.83
39954;BME280;25631;51.516;-0.470;2023-03-19T03:20:24;100953.59;;;7.49;40.79
39954;BME280;25631;51.516;-0.470;2023-03-19T03:23:00;100951.45;;;7.60;41.04
39954;BME280;25631;51.516;-0.470;2023-03-19T03:25:37;100951.19;;;7.46;41.15
39954;BME280;25631;51.516;-0.470;2023-03-19T03:28:14;100959.42;;;7.42;41.19
39954;BME280;25631;51.516;-0.470;2023-03-19T03:30:50;100964.35;;;7.43;41.16
39954;BME280;25631;51.516;-0.470;2023-03-19T03:33:27;100966.83;;;7.19;41.32
39954;BME280;25631;51.516;-0.470;2023-03-19T03:36:04;100969.02;;;7.30;41.34
39954;BME280;25631;51.516;-0.470;2023-03-19T03:38:40;100967.94;;;7.37;41.33
39954;BME280;25631;51.516;-0.470;2023-03-19T03:41:17;100970.65;;;7.49;41.32
39954;BME280;25631;51.516;-0.470;2023-03-19T03:43:53;100974.09;;;7.41;41.24
39954;BME280;25631;51.516;-0.470;2023-03-19T03:46:30;100973.38;;;7.54;41.24
39954;BME280;25631;51.516;-0.470;2023-03-19T03:49:06;100971.41;;;7.48;41.14
39954;BME280;25631;51.516;-0.470;2023-03-19T03:51:43;100975.72;;;7.00;40.99
39954;BME280;25631;51.516;-0.470;2023-03-19T03:54:19;100979.06;;;7.31;40.90
39954;BME280;25631;51.516;-0.470;2023-03-19T03:56:56;100981.99;;;7.21;40.93
39954;BME280;25631;51.516;-0.470;2023-03-19T03:59:32;100991.81;;;7.17;40.78
39954;BME280;25631;51.516;-0.470;2023-03-19T04:02:09;100992.12;;;7.29;40.59
39954;BME280;25631;51.516;-0.470;2023-03-19T04:04:45;100993.69;;;6.90;40.44
39954;BME280;25631;51.516;-0.470;2023-03-19T04:07:22;100998.57;;;6.86;40.36
39954;BME280;25631;51.516;-0.470;2023-03-19T04:09:58;101001.70;;;7.39;40.41
39954;BME280;25631;51.516;-0.470;2023-03-19T04:12:36;101006.29;;;6.90;39.80
39954;BME280;25631;51.516;-0.470;2023-03-19T04:15:12;101010.56;;;6.54;39.37
39954;BME280;25631;51.516;-0.470;2023-03-19T04:17:49;101019.16;;;6.40;39.14
39954;BME280;25631;51.516;-0.470;2023-03-19T04:20:25;101027.56;;;6.82;39.18
39954;BME280;25631;51.516;-0.470;2023-03-19T04:23:02;101032.86;;;6.53;39.01
39954;BME280;25631;51.516;-0.470;2023-03-19T04:25:39;101035.66;;;6.22;39.11
39954;BME280;25631;51.516;-0.470;2023-03-19T04:28:15;101040.45;;;6.53;38.99
39954;BME280;25631;51.516;-0.470;2023-03-19T04:30:52;101049.39;;;6.64;39.02
39954;BME280;25631;51.516;-0.470;2023-03-19T04:33:28;101054.12;;;6.54;39.10
39954;BME280;25631;51.516;-0.470;2023-03-19T04:36:05;101056.48;;;6.47;39.10
39954;BME280;25631;51.516;-0.470;2023-03-19T04:38:42;101054.42;;;6.31;39.43
39954;BME280;25631;51.516;-0.470;2023-03-19T04:41:18;101056.61;;;6.56;39.30
39954;BME280;25631;51.516;-0.470;2023-03-19T04:43:55;101059.28;;;6.55;39.37
39954;BME280;25631;51.516;-0.470;2023-03-19T04:46:31;101066.55;;;6.53;39.51
39954;BME280;25631;51.516;-0.470;2023-03-19T04:49:08;101065.78;;;6.23;39.54
39954;BME280;25631;51.516;-0.470;2023-03-19T04:51:44;101070.67;;;6.35;39.59
39954;BME280;25631;51.516;-0.470;2023-03-19T04:54:21;101071.81;;;6.20;39.51
39954;BME280;25631;51.516;-0.470;2023-03-19T04:56:57;101077.86;;;6.21;39.57
39954;BME280;25631;51.516;-0.470;2023-03-19T04:59:33;101082.25;;;6.34;39.50
39954;BME280;25631;51.516;-0.470;2023-03-19T05:02:10;101080.57;;;6.33;39.49
39954;BME280;25631;51.516;-0.470;2023-03-19T05:04:47;101079.15;;;6.33;39.50
39954;BME280;25631;51.516;-0.470;2023-03-19T05:07:23;101084.46;;;6.31;39.34
39954;BME280;25631;51.516;-0.470;2023-03-19T05:10:00;101091.05;;;6.21;39.44
39954;BME280;25631;51.516;-0.470;2023-03-19T05:12:36;101094.42;;;6.23;39.50
39954;BME280;25631;51.516;-0.470;2023-03-19T05:15:13;101100.18;;;6.22;39.43
39954;BME280;25631;51.516;-0.470;2023-03-19T05:17:50;101101.41;;;6.17;39.41
39954;BME280;25631;51.516;-0.470;2023-03-19T05:20:26;101109.94;;;5.92;39.51
39954;BME280;25631;51.516;-0.470;2023-03-19T05:23:03;101111.14;;;5.98;39.60
39954;BME280;25631;51.516;-0.470;2023-03-19T05:25:40;101114.68;;;5.96;39.65
39954;BME280;25631;51.516;-0.470;2023-03-19T05:28:17;101116.31;;;6.13;39.69
39954;BME280;25631;51.516;-0.470;2023-03-19T05:30:53;101117.22;;;6.18;39.43
39954;BME280;25631;51.516;-0.470;2023-03-19T05:33:30;101120.22;;;5.97;39.58
39954;BME280;25631;51.516;-0.470;2023-03-19T05:36:06;101122.54;;;6.06;39.56
39954;BME280;25631;51.516;-0.470;2023-03-19T05:38:43;101131.84;;;6.07;39.55
39954;BME280;25631;51.516;-0.470;2023-03-19T05:41:19;101135.35;;;6.05;39.58
39954;BME280;25631;51.516;-0.470;2023-03-19T05:43:56;101137.47;;;5.85;39.50
39954;BME280;25631;51.516;-0.470;2023-03-19T05:46:32;101139.15;;;6.05;39.64
39954;BME280;25631;51.516;-0.470;2023-03-19T05:49:09;101142.42;;;6.04;39.69
39954;BME280;25631;51.516;-0.470;2023-03-19T05:51:46;101144.20;;;6.03;39.58
39954;BME280;25631;51.516;-0.470;2023-03-19T05:54:22;101151.61;;;6.28;39.52
39954;BME280;25631;51.516;-0.470;2023-03-19T05:56:59;101150.65;;;6.10;39.51
39954;BME280;25631;51.516;-0.470;2023-03-19T05:59:35;101152.06;;;6.03;39.47
39954;BME280;25631;51.516;-0.470;2023-03-19T06:02:11;101154.42;;;5.92;39.49
39954;BME280;25631;51.516;-0.470;2023-03-19T06:04:48;101157.98;;;5.98;39.44
39954;BME280;25631;51.516;-0.470;2023-03-19T06:07:24;101156.57;;;5.73;39.43
39954;BME280;25631;51.516;-0.470;2023-03-19T06:10:01;101156.81;;;5.74;39.42
39954;BME280;25631;51.516;-0.470;2023-03-19T06:12:38;101161.33;;;5.82;39.43
39954;BME280;25631;51.516;-0.470;2023-03-19T06:15:15;101161.78;;;5.76;39.37
39954;BME280;25631;51.516;-0.470;2023-03-19T06:17:51;101166.66;;;5.54;39.31
39954;BME280;25631;51.516;-0.470;2023-03-19T06:20:28;101172.79;;;5.41;39.35
39954;BME280;25631;51.516;-0.470;2023-03-19T06:23:04;101177.48;;;5.89;39.36
39954;BME280;25631;51.516;-0.470;2023-03-19T06:25:41;101181.51;;;5.34;39.23
39954;BME280;25631;51.516;-0.470;2023-03-19T06:28:18;101182.06;;;5.79;39.26
39954;BME280;25631;51.516;-0.470;2023-03-19T06:30:54;101187.09;;;5.40;39.19
39954;BME280;25631;51.516;-0.470;2023-03-19T06:33:31;101189.01;;;5.58;39.25
39954;BME280;25631;51.516;-0.470;2023-03-19T06:36:08;101192.25;;;5.31;39.25
39954;BME280;25631;51.516;-0.470;2023-03-19T06:38:44;101195.70;;;5.43;39.19
39954;BME280;25631;51.516;-0.470;2023-03-19T06:41:21;101201.76;;;5.67;39.21
39954;BME280;25631;51.516;-0.470;2023-03-19T06:43:57;101206.92;;;5.46;39.26
39954;BME280;25631;51.516;-0.470;2023-03-19T06:46:34;101211.33;;;5.09;39.36
39954;BME280;25631;51.516;-0.470;2023-03-19T06:49:16;101217.17;;;5.29;39.33
39954;BME280;25631;51.516;-0.470;2023-03-19T06:51:52;101223.54;;;5.42;39.36
39954;BME280;25631;51.516;-0.470;2023-03-19T06:54:29;101224.62;;;5.03;39.34
39954;BME280;25631;51.516;-0.470;2023-03-19T06:57:05;101227.21;;;5.43;39.36
39954;BME280;25631;51.516;-0.470;2023-03-19T06:59:42;101231.99;;;5.77;39.39
39954;BME280;25631;51.516;-0.470;2023-03-19T07:02:18;101237.13;;;5.08;39.52
39954;BME280;25631;51.516;-0.470;2023-03-19T07:04:55;101242.55;;;5.49;39.57
39954;BME280;25631;51.516;-0.470;2023-03-19T07:07:31;101246.69;;;5.41;39.52
39954;BME280;25631;51.516;-0.470;2023-03-19T07:10:09;101251.30;;;5.49;39.55
39954;BME280;25631;51.516;-0.470;2023-03-19T07:12:45;101255.24;;;5.57;39.62
39954;BME280;25631;51.516;-0.470;2023-03-19T07:15:22;101256.41;;;5.14;39.72
39954;BME280;25631;51.516;-0.470;2023-03-19T07:17:59;101260.01;;;5.31;39.67
39954;BME280;25631;51.516;-0.470;2023-03-19T07:20:35;101261.59;;;5.74;39.73
39954;BME280;25631;51.516;-0.470;2023-03-19T07:23:12;101262.06;;;5.59;39.64
39954;BME280;25631;51.516;-0.470;2023-03-19T07:25:48;101268.40;;;5.57;39.69
39954;BME280;25631;51.516;-0.470;2023-03-19T07:28:25;101275.42;;;5.53;39.58
39954;BME280;25631;51.516;-0.470;2023-03-19T07:31:02;101278.12;;;5.42;39.46
39954;BME280;25631;51.516;-0.470;2023-03-19T07:33:38;101284.77;;;5.39;39.50
39954;BME280;25631;51.516;-0.470;2023-03-19T07:36:15;101286.86;;;5.51;39.55
39954;BME280;25631;51.516;-0.470;2023-03-19T07:38:51;101286.72;;;5.47;39.67
39954;BME280;25631;51.516;-0.470;2023-03-19T07:41:28;101292.59;;;5.58;39.45
39954;BME280;25631;51.516;-0.470;2023-03-19T07:44:05;101293.67;;;5.50;39.47
39954;BME280;25631;51.516;-0.470;2023-03-19T07:46:42;101294.46;;;5.58;39.37
39954;BME280;25631;51.516;-0.470;2023-03-19T07:49:19;101295.85;;;5.50;39.35
39954;BME280;25631;51.516;-0.470;2023-03-19T07:51:55;101296.84;;;5.66;39.17
39954;BME280;25631;51.516;-0.470;2023-03-19T07:54:32;101303.62;;;5.93;39.14
39954;BME280;25631;51.516;-0.470;2023-03-19T07:57:08;101303.16;;;5.87;39.10
39954;BME280;25631;51.516;-0.470;2023-03-19T07:59:45;101298.15;;;6.02;39.04
39954;BME280;25631;51.516;-0.470;2023-03-19T08:02:21;101301.10;;;6.25;38.90
39954;BME280;25631;51.516;-0.470;2023-03-19T08:05:03;101304.17;;;6.31;38.76
39954;BME280;25631;51.516;-0.470;2023-03-19T08:07:40;101303.62;;;6.26;38.74
39954;BME280;25631;51.516;-0.470;2023-03-19T08:10:16;101302.17;;;6.30;38.46
39954;BME280;25631;51.516;-0.470;2023-03-19T08:12:53;101301.54;;;6.32;38.49
39954;BME280;25631;51.516;-0.470;2023-03-19T08:15:29;101304.55;;;6.22;38.57
39954;BME280;25631;51.516;-0.470;2023-03-19T08:18:06;101309.80;;;6.31;38.63
39954;BME280;25631;51.516;-0.470;2023-03-19T08:20:43;101310.08;;;6.56;38.58
39954;BME280;25631;51.516;-0.470;2023-03-19T08:23:20;101315.05;;;6.38;38.61
39954;BME280;25631;51.516;-0.470;2023-03-19T08:25:56;101325.15;;;6.65;38.55
39954;BME280;25631;51.516;-0.470;2023-03-19T08:28:33;101324.09;;;6.69;38.54
39954;BME280;25631;51.516;-0.470;2023-03-19T08:31:12;101331.01;;;7.04;38.33
39954;BME280;25631;51.516;-0.470;2023-03-19T08:33:49;101336.30;;;6.86;38.08
39954;BME280;25631;51.516;-0.470;2023-03-19T08:36:26;101334.24;;;6.95;38.01
39954;BME280;25631;51.516;-0.470;2023-03-19T08:39:03;101341.46;;;6.89;37.84
39954;BME280;25631;51.516;-0.470;2023-03-19T08:41:39;101346.38;;;6.88;37.44
39954;BME280;25631;51.516;-0.470;2023-03-19T08:44:15;101350.50;;;6.92;37.47
39954;BME280;25631;51.516;-0.470;2023-03-19T08:46:52;101356.10;;;6.84;37.65
39954;BME280;25631;51.516;-0.470;2023-03-19T08:49:29;101360.22;;;7.04;37.64
39954;BME280;25631;51.516;-0.470;2023-03-19T08:52:06;101364.03;;;6.68;37.74
39954;BME280;25631;51.516;-0.470;2023-03-19T08:54:42;101364.35;;;7.08;37.46
39954;BME280;25631;51.516;-0.470;2023-03-19T08:57:19;101360.57;;;6.84;37.56
39954;BME280;25631;51.516;-0.470;2023-03-19T08:59:55;101362.55;;;7.51;37.32
39954;BME280;25631;51.516;-0.470;2023-03-19T09:02:32;101363.69;;;6.94;37.09
39954;BME280;25631;51.516;-0.470;2023-03-19T09:05:09;101362.84;;;7.15;36.94
39954;BME280;25631;51.516;-0.470;2023-03-19T09:07:45;101365.50;;;7.05;36.73
39954;BME280;25631;51.516;-0.470;2023-03-19T09:10:21;101370.41;;;7.22;35.80
39954;BME280;25631;51.516;-0.470;2023-03-19T09:12:58;101373.04;;;7.16;35.37
39954;BME280;25631;51.516;-0.470;2023-03-19T09:15:35;101376.57;;;6.99;35.19
39954;BME280;25631;51.516;-0.470;2023-03-19T09:18:11;101381.08;;;6.96;35.42
39954;BME280;25631;51.516;-0.470;2023-03-19T09:20:48;101387.53;;;6.81;35.40
39954;BME280;25631;51.516;-0.470;2023-03-19T09:23:25;101383.53;;;7.08;35.82
39954;BME280;25631;51.516;-0.470;2023-03-19T09:26:01;101389.90;;;6.91;35.71
39954;BME280;25631;51.516;-0.470;2023-03-19T09:28:38;101383.66;;;7.12;35.60
39954;BME280;25631;51.516;-0.470;2023-03-19T09:31:14;101387.13;;;7.34;35.13
39954;BME280;25631;51.516;-0.470;2023-03-19T09:33:51;101389.39;;;7.42;35.77
39954;BME280;25631;51.516;-0.470;2023-03-19T09:36:29;101391.12;;;7.36;35.75
39954;BME280;25631;51.516;-0.470;2023-03-19T09:39:06;101396.71;;;7.52;35.29
39954;BME280;25631;51.516;-0.470;2023-03-19T09:41:51;101394.04;;;7.58;34.66
39954;BME280;25631;51.516;-0.470;2023-03-19T09:44:34;101401.02;;;7.64;33.78
39954;BME280;25631;51.516;-0.470;2023-03-19T09:47:23;101402.23;;;7.52;33.75
39954;BME280;25631;51.516;-0.470;2023-03-19T09:50:05;101406.72;;;7.87;33.91
39954;BME280;25631;51.516;-0.470;2023-03-19T09:52:44;101409.97;;;7.92;34.02
39954;BME280;25631;51.516;-0.470;2023-03-19T09:55:36;101408.20;;;7.96;34.09
39954;BME280;25631;51.516;-0.470;2023-03-19T09:58:18;101408.41;;;7.15;33.55
39954;BME280;25631;51.516;-0.470;2023-03-19T10:00:56;101407.45;;;7.08;33.89
39954;BME280;25631;51.516;-0.470;2023-03-19T10:03:42;101420.79;;;7.32;34.34
39954;BME280;25631;51.516;-0.470;2023-03-19T10:06:27;101423.53;;;7.51;34.66
39954;BME280;25631;51.516;-0.470;2023-03-19T10:09:24;101426.54;;;7.29;34.80
39954;BME280;25631;51.516;-0.470;2023-03-19T10:12:16;101435.97;;;7.42;35.01
39954;BME280;25631;51.516;-0.470;2023-03-19T10:15:16;101440.61;;;7.57;35.08
39954;BME280;25631;51.516;-0.470;2023-03-19T10:17:57;101445.54;;;7.51;34.88
39954;BME280;25631;51.516;-0.470;2023-03-19T10:20:43;101447.13;;;7.52;34.97
39954;BME280;25631;51.516;-0.470;2023-03-19T10:23:29;101446.58;;;7.46;34.98
39954;BME280;25631;51.516;-0.470;2023-03-19T10:26:11;101454.69;;;7.44;35.19
39954;BME280;25631;51.516;-0.470;2023-03-19T10:28:58;101453.28;;;7.58;35.36
39954;BME280;25631;51.516;-0.470;2023-03-19T10:31:43;101453.36;;;7.49;35.49
39954;BME280;25631;51.516;-0.470;2023-03-19T10:34:28;101452.05;;;7.33;35.75
39954;BME280;25631;51.516;-0.470;2023-03-19T10:37:13;101449.16;;;7.42;35.75
39954;BME280;25631;51.516;-0.470;2023-03-19T10:39:52;101447.85;;;7.57;35.42
39954;BME280;25631;51.516;-0.470;2023-03-19T10:42:39;101447.74;;;8.01;35.32
39954;BME280;25631;51.516;-0.470;2023-03-19T10:45:24;101450.17;;;7.67;35.45
39954;BME280;25631;51.516;-0.470;2023-03-19T10:48:03;101452.55;;;7.76;35.24
39954;BME280;25631;51.516;-0.470;2023-03-19T10:50:45;101459.48;;;8.07;35.25
39954;BME280;25631;51.516;-0.470;2023-03-19T10:53:31;101464.09;;;7.96;35.03
39954;BME280;25631;51.516;-0.470;2023-03-19T10:56:18;101459.32;;;7.93;34.90
39954;BME280;25631;51.516;-0.470;2023-03-19T10:58:57;101460.54;;;8.50;34.68
39954;BME280;25631;51.516;-0.470;2023-03-19T11:01:38;101458.73;;;8.03;34.78
39954;BME280;25631;51.516;-0.470;2023-03-19T11:04:18;101458.81;;;8.48;34.73
39954;BME280;25631;51.516;-0.470;2023-03-19T11:06:55;101461.26;;;8.59;34.82
39954;BME280;25631;51.516;-0.470;2023-03-19T11:09:38;101461.86;;;8.49;34.67
39954;BME280;25631;51.516;-0.470;2023-03-19T11:12:19;101451.37;;;8.17;34.73
39954;BME280;25631;51.516;-0.470;2023-03-19T11:14:57;101449.67;;;8.07;33.84
39954;BME280;25631;51.516;-0.470;2023-03-19T11:17:38;101452.05;;;8.23;33.64
39954;BME280;25631;51.516;-0.470;2023-03-19T11:20:21;101455.49;;;8.34;33.20
39954;BME280;25631;51.516;-0.470;2023-03-19T11:23:00;101454.92;;;8.60;33.10
39954;BME280;25631;51.516;-0.470;2023-03-19T11:25:38;101460.04;;;8.47;32.77
39954;BME280;25631;51.516;-0.470;2023-03-19T11:28:16;101471.85;;;8.05;33.03
39954;BME280;25631;51.516;-0.470;2023-03-19T11:30:59;101471.80;;;8.32;32.60
39954;BME280;25631;51.516;-0.470;2023-03-19T11:33:46;101473.90;;;8.25;33.14
39954;BME280;25631;51.516;-0.470;2023-03-19T11:36:31;101471.05;;;8.25;33.65
39954;BME280;25631;51.516;-0.470;2023-03-19T11:39:20;101475.74;;;8.21;33.70
39954;BME280;25631;51.516;-0.470;2023-03-19T11:42:10;101475.98;;;8.08;33.59
39954;BME280;25631;51.516;-0.470;2023-03-19T11:45:06;101475.64;;;8.01;33.41
39954;BME280;25631;51.516;-0.470;2023-03-19T11:47:51;101478.26;;;8.16;33.37
39954;BME280;25631;51.516;-0.470;2023-03-19T11:50:38;101480.40;;;8.16;33.52
39954;BME280;25631;51.516;-0.470;2023-03-19T11:53:22;101486.65;;;8.32;33.76
39954;BME280;25631;51.516;-0.470;2023-03-19T11:56:07;101489.39;;;8.23;33.29
39954;BME280;25631;51.516;-0.470;2023-03-19T11:59:04;101487.18;;;8.02;33.60
39954;BME280;25631;51.516;-0.470;2023-03-19T12:02:07;101489.33;;;8.32;33.87
39954;BME280;25631;51.516;-0.470;2023-03-19T12:05:01;101485.60;;;8.67;33.51
39954;BME280;25631;51.516;-0.470;2023-03-19T12:07:44;101485.19;;;8.58;33.26
39954;BME280;25631;51.516;-0.470;2023-03-19T12:10:31;101485.91;;;8.62;32.77
39954;BME280;25631;51.516;-0.470;2023-03-19T12:13:23;101483.61;;;8.82;32.97
39954;BME280;25631;51.516;-0.470;2023-03-19T12:16:11;101481.68;;;9.19;32.43
39954;BME280;25631;51.516;-0.470;2023-03-19T12:19:00;101482.92;;;9.11;32.33
39954;BME280;25631;51.516;-0.470;2023-03-19T12:21:47;101483.66;;;9.26;31.99
39954;BME280;25631;51.516;-0.470;2023-03-19T12:24:36;101484.45;;;9.10;31.91
39954;BME280;25631;51.516;-0.470;2023-03-19T12:27:23;101484.44;;;9.18;31.80
39954;BME280;25631;51.516;-0.470;2023-03-19T12:30:12;101489.20;;;9.04;31.73
39954;BME280;25631;51.516;-0.470;2023-03-19T12:33:04;101487.61;;;8.97;31.77
39954;BME280;25631;51.516;-0.470;2023-03-19T12:35:48;101486.14;;;9.25;31.60
39954;BME280;25631;51.516;-0.470;2023-03-19T12:38:29;101486.63;;;9.21;31.61
39954;BME280;25631;51.516;-0.470;2023-03-19T12:41:08;101489.19;;;9.16;31.79
39954;BME280;25631;51.516;-0.470;2023-03-19T12:43:53;101489.60;;;9.38;31.57
39954;BME280;25631;51.516;-0.470;2023-03-19T12:46:34;101489.57;;;9.30;31.76
39954;BME280;25631;51.516;-0.470;2023-03-19T12:49:15;101496.52;;;9.17;31.97
39954;BME280;25631;51.516;-0.470;2023-03-19T12:51:58;101493.55;;;9.17;31.75
39954;BME280;25631;51.516;-0.470;2023-03-19T12:54:38;101486.51;;;9.34;31.73
39954;BME280;25631;51.516;-0.470;2023-03-19T12:57:20;101495.26;;;9.31;31.84
39954;BME280;25631;51.516;-0.470;2023-03-19T13:00:06;101492.36;;;9.35;31.83
39954;BME280;25631;51.516;-0.470;2023-03-19T13:02:49;101490.08;;;9.26;31.75
39954;BME280;25631;51.516;-0.470;2023-03-19T13:05:33;101489.50;;;9.55;31.69
39954;BME280;25631;51.516;-0.470;2023-03-19T13:08:15;101492.61;;;9.60;31.83
39954;BME280;25631;51.516;-0.470;2023-03-19T13:10:54;101489.30;;;9.68;31.74
39954;BME280;25631;51.516;-0.470;2023-03-19T13:13:39;101484.03;;;9.60;31.11
39954;BME280;25631;51.516;-0.470;2023-03-19T13:16:29;101485.14;;;9.48;31.07
39954;BME280;25631;51.516;-0.470;2023-03-19T13:19:16;101483.02;;;9.89;31.14
39954;BME280;25631;51.516;-0.470;2023-03-19T13:21:58;101476.78;;;9.81;31.08
39954;BME280;25631;51.516;-0.470;2023-03-19T13:24:38;101476.47;;;10.01;30.81
39954;BME280;25631;51.516;-0.470;2023-03-19T13:27:20;101476.10;;;9.83;30.77
39954;BME280;25631;51.516;-0.470;2023-03-19T13:30:06;101478.49;;;9.92;30.88
39954;BME280;25631;51.516;-0.470;2023-03-19T13:32:46;101476.39;;;9.36;31.19
39954;BME280;25631;51.516;-0.470;2023-03-19T13:35:30;101472.64;;;9.52;31.34
39954;BME280;25631;51.516;-0.470;2023-03-19T13:38:17;101473.73;;;9.83;31.02
39954;BME280;25631;51.516;-0.470;2023-03-19T13:40:56;101478.98;;;9.63;31.34
39954;BME280;25631;51.516;-0.470;2023-03-19T13:43:51;101478.70;;;10.00;30.98
39954;BME280;25631;51.516;-0.470;2023-03-19T13:46:36;101480.15;;;10.06;30.76
39954;BME280;25631;51.516;-0.470;2023-03-19T13:49:30;101483.03;;;10.05;30.34
39954;BME280;25631;51.516;-0.470;2023-03-19T13:52:48;101479.14;;;10.34;30.07